createdAt,value
2023-01-20T00:01:15.947Z,-1.33
2023-01-20T00:05:24.179Z,-1.31
2023-01-20T00:09:33.550Z,-1.27
2023-01-20T00:13:41.920Z,-1.26
2023-01-20T00:17:50.474Z,-1.28
2023-01-20T00:21:58.162Z,-1.34
2023-01-20T00:26:09.744Z,-1.43
2023-01-20T00:30:19.211Z,-1.48
2023-01-20T00:34:27.033Z,-1.57
2023-01-20T00:38:34.836Z,-1.63
2023-01-20T00:42:42.838Z,-1.68
2023-01-20T00:46:50.796Z,-1.73
2023-01-20T00:50:58.781Z,-1.74
2023-01-20T00:55:07.606Z,-1.69
2023-01-20T00:59:16.750Z,-1.70
2023-01-20T01:03:25.584Z,-1.70
2023-01-20T01:07:33.651Z,-1.69
2023-01-20T01:11:41.811Z,-1.75
2023-01-20T01:15:53.162Z,-1.81
2023-01-20T01:20:01.463Z,-1.86
2023-01-20T01:24:10.101Z,-1.91
2023-01-20T01:28:18.042Z,-1.92
2023-01-20T01:32:25.960Z,-1.92
2023-01-20T01:36:34.053Z,-1.90
2023-01-20T01:40:42.420Z,-1.85
2023-01-20T01:45:20.593Z,-1.79
2023-01-20T01:49:30.913Z,-1.77
2023-01-20T01:53:43.828Z,-1.77
2023-01-20T01:57:52.896Z,-1.78
2023-01-20T02:02:01.202Z,-1.82
2023-01-20T02:06:10.951Z,-1.86
2023-01-20T02:10:18.571Z,-1.92
2023-01-20T02:14:32.329Z,-1.95
2023-01-20T02:18:48.778Z,-1.94
2023-01-20T02:23:00.584Z,-1.90
2023-01-20T02:27:13.810Z,-1.81
2023-01-20T02:31:53.857Z,-1.74
2023-01-20T02:36:04.591Z,-1.73
2023-01-20T02:40:20.790Z,-1.74
2023-01-20T02:44:40.217Z,-1.75
2023-01-20T02:48:52.347Z,-1.84
2023-01-20T02:53:02.024Z,-1.88
2023-01-20T02:57:11.726Z,-1.87
2023-01-20T03:01:22.494Z,-1.81
2023-01-20T03:05:32.827Z,-1.75
2023-01-20T03:09:44.754Z,-1.70
2023-01-20T03:13:57.674Z,-1.65
2023-01-20T03:18:06.702Z,-1.68
2023-01-20T03:22:14.567Z,-1.72
2023-01-20T03:26:24.338Z,-1.74
2023-01-20T03:30:32.348Z,-1.79
2023-01-20T03:34:43.518Z,-1.80
2023-01-20T03:38:52.105Z,-1.79
2023-01-20T03:43:06.128Z,-1.80
2023-01-20T03:47:22.616Z,-1.81
2023-01-20T03:51:34.551Z,-1.87
2023-01-20T03:55:46.929Z,-1.93
2023-01-20T03:59:55.943Z,-2.01
2023-01-20T04:04:09.926Z,-2.10
2023-01-20T04:08:19.561Z,-2.23
2023-01-20T04:12:27.152Z,-2.26
2023-01-20T04:16:35.363Z,-2.24
2023-01-20T04:20:44.196Z,-2.17
2023-01-20T04:24:55.861Z,-2.16
2023-01-20T04:29:11.922Z,-2.22
2023-01-20T04:33:21.271Z,-2.31
2023-01-20T04:37:31.059Z,-2.37
2023-01-20T04:41:39.358Z,-2.47
2023-01-20T04:45:47.804Z,-2.55
2023-01-20T04:49:55.222Z,-2.64
2023-01-20T04:54:03.046Z,-2.74
2023-01-20T04:58:11.742Z,-2.77
2023-01-20T05:02:21.329Z,-2.72
2023-01-20T05:06:29.729Z,-2.65
2023-01-20T05:10:38.318Z,-2.55
2023-01-20T05:14:46.824Z,-2.45
2023-01-20T05:18:55.629Z,-2.38
2023-01-20T05:23:03.211Z,-2.34
2023-01-20T05:27:10.859Z,-2.34
2023-01-20T05:31:21.453Z,-2.39
2023-01-20T05:35:29.678Z,-2.46
2023-01-20T05:39:37.264Z,-2.54
2023-01-20T05:43:44.749Z,-2.59
2023-01-20T05:47:58.028Z,-2.59
2023-01-20T05:52:06.411Z,-2.57
2023-01-20T05:56:17.091Z,-2.57
2023-01-20T06:00:27.225Z,-2.55
2023-01-20T06:04:35.070Z,-2.55
2023-01-20T06:08:43.347Z,-2.57
2023-01-20T06:12:56.450Z,-2.59
2023-01-20T06:17:04.337Z,-2.63
2023-01-20T06:21:12.402Z,-2.72
2023-01-20T06:25:20.850Z,-2.74
2023-01-20T06:29:28.405Z,-2.78
2023-01-20T06:33:39.663Z,-2.80
2023-01-20T06:37:47.824Z,-2.76
2023-01-20T06:41:58.268Z,-2.74
2023-01-20T06:46:08.545Z,-2.79
2023-01-20T06:50:16.830Z,-2.81
2023-01-20T06:54:27.601Z,-2.87
2023-01-20T06:58:36.590Z,-2.96
2023-01-20T07:02:44.501Z,-3.01
2023-01-20T07:06:52.572Z,-3.08
2023-01-20T07:11:00.447Z,-3.13
2023-01-20T07:15:10.551Z,-3.12
2023-01-20T07:19:17.903Z,-3.05
2023-01-20T07:23:26.170Z,-2.94
2023-01-20T07:27:34.222Z,-2.89
2023-01-20T07:31:41.865Z,-2.81
2023-01-20T07:35:54.822Z,-2.77
2023-01-20T07:40:03.360Z,-2.79
2023-01-20T07:44:12.348Z,-2.79
2023-01-20T07:48:20.435Z,-2.79
2023-01-20T07:52:28.083Z,-2.80
2023-01-20T07:56:38.110Z,-2.74
2023-01-20T08:00:49.202Z,-2.66
2023-01-20T08:04:57.207Z,-2.57
2023-01-20T08:09:05.747Z,-2.49
2023-01-20T08:13:14.691Z,-2.39
2023-01-20T08:17:22.660Z,-2.33
2023-01-20T08:21:32.550Z,-2.30
2023-01-20T08:25:40.686Z,-2.25
2023-01-20T08:29:49.810Z,-2.19
2023-01-20T08:33:58.544Z,-2.12
2023-01-20T08:38:07.999Z,-2.01
2023-01-20T08:42:16.898Z,-1.85
2023-01-20T08:46:25.079Z,-1.63
2023-01-20T08:50:34.485Z,-1.42
2023-01-20T08:54:42.261Z,-1.26
2023-01-20T08:58:52.404Z,-1.13
2023-01-20T09:03:00.531Z,-1.04
2023-01-20T09:07:11.591Z,-0.98
2023-01-20T09:11:22.695Z,-0.93
2023-01-20T09:15:30.635Z,-0.86
2023-01-20T09:19:39.434Z,-0.80
2023-01-20T09:23:48.387Z,-0.72
2023-01-20T09:27:56.193Z,-0.62
2023-01-20T09:32:03.864Z,-0.47
2023-01-20T09:36:13.509Z,-0.27
2023-01-20T09:40:43.305Z,-0.09
2023-01-20T09:44:55.237Z,0.06
2023-01-20T09:49:28.096Z,0.20
2023-01-20T09:53:46.633Z,0.30
2023-01-20T09:57:59.534Z,0.33
2023-01-20T10:02:13.147Z,0.36
2023-01-20T10:06:26.920Z,0.43
2023-01-20T10:10:38.823Z,0.49
2023-01-20T10:14:49.210Z,0.57
2023-01-20T10:18:59.352Z,0.66
2023-01-20T10:23:11.926Z,0.75
2023-01-20T10:27:19.519Z,0.81
2023-01-20T10:31:30.131Z,0.85
2023-01-20T10:35:41.993Z,0.89
2023-01-20T10:39:53.689Z,0.93
2023-01-20T10:44:02.716Z,0.92
2023-01-20T10:48:20.001Z,0.93
2023-01-20T10:52:38.580Z,0.95
2023-01-20T10:56:54.062Z,0.98
2023-01-20T11:01:05.291Z,1.08
2023-01-20T11:05:20.195Z,1.20
2023-01-20T11:09:32.198Z,1.29
2023-01-20T11:13:39.799Z,1.34
2023-01-20T11:17:49.397Z,1.36
2023-01-20T11:21:57.346Z,1.38
2023-01-20T11:26:10.242Z,1.41
2023-01-20T11:30:28.353Z,1.44
2023-01-20T11:34:38.996Z,1.44
2023-01-20T11:38:48.105Z,1.48
2023-01-20T11:42:56.949Z,1.56
2023-01-20T11:47:23.253Z,1.63
2023-01-20T11:51:31.487Z,1.69
2023-01-20T11:55:48.666Z,1.75
2023-01-20T11:59:56.568Z,1.80
2023-01-20T12:04:23.476Z,1.81
2023-01-20T12:08:35.834Z,1.81
2023-01-20T12:12:48.427Z,1.81
2023-01-20T12:17:08.800Z,1.79
2023-01-20T12:21:17.877Z,1.77
2023-01-20T12:25:28.081Z,1.78
2023-01-20T12:29:44.755Z,1.83
2023-01-20T12:34:00.447Z,1.87
2023-01-20T12:38:10.259Z,1.86
2023-01-20T12:42:53.848Z,1.81
2023-01-20T12:47:08.714Z,1.73
2023-01-20T12:51:24.194Z,1.68
2023-01-20T12:55:41.901Z,1.64
2023-01-20T13:00:00.419Z,1.60
2023-01-20T13:04:53.468Z,1.56
2023-01-20T13:09:06.179Z,1.50
2023-01-20T13:13:24.472Z,1.44
2023-01-20T13:17:38.298Z,1.42
2023-01-20T13:21:56.522Z,1.44
2023-01-20T13:26:12.996Z,1.50
2023-01-20T13:30:44.512Z,1.51
2023-01-20T13:34:52.574Z,1.49
2023-01-20T13:39:27.317Z,1.45
2023-01-20T13:44:01.551Z,1.39
2023-01-20T13:48:25.562Z,1.39
2023-01-20T13:53:19.767Z,1.43
2023-01-20T13:57:47.761Z,1.44
2023-01-20T14:01:55.825Z,1.44
2023-01-20T14:06:06.275Z,1.41
2023-01-20T14:10:15.899Z,1.45
2023-01-20T14:14:25.847Z,1.47
2023-01-20T14:18:34.208Z,1.47
2023-01-20T14:22:42.330Z,1.45
2023-01-20T14:26:50.386Z,1.43
2023-01-20T14:31:19.626Z,1.39
2023-01-20T14:35:31.307Z,1.34
2023-01-20T14:39:40.560Z,1.28
2023-01-20T14:43:49.560Z,1.22
2023-01-20T14:47:57.854Z,1.16
2023-01-20T14:52:05.790Z,1.15
2023-01-20T14:56:21.556Z,1.16
2023-01-20T15:00:30.572Z,1.18
2023-01-20T15:04:41.495Z,1.14
2023-01-20T15:09:05.130Z,1.10
2023-01-20T15:13:27.728Z,1.02
2023-01-20T15:17:35.230Z,0.93
2023-01-20T15:21:44.509Z,0.89
2023-01-20T15:25:54.203Z,0.89
2023-01-20T15:30:24.357Z,0.90
2023-01-20T15:34:32.172Z,0.88
2023-01-20T15:38:40.321Z,0.84
2023-01-20T15:42:48.429Z,0.77
2023-01-20T15:46:57.658Z,0.70
2023-01-20T15:51:07.465Z,0.67
2023-01-20T15:55:20.136Z,0.67
2023-01-20T15:59:30.684Z,0.68
2023-01-20T16:03:38.996Z,0.67
2023-01-20T16:07:47.973Z,0.64
2023-01-20T16:11:55.809Z,0.59
2023-01-20T16:16:04.146Z,0.53
2023-01-20T16:20:21.544Z,0.50
2023-01-20T16:24:29.425Z,0.47
2023-01-20T16:28:38.120Z,0.50
2023-01-20T16:32:47.419Z,0.49
2023-01-20T16:36:55.143Z,0.46
2023-01-20T16:41:07.997Z,0.43
2023-01-20T16:45:31.567Z,0.44
2023-01-20T16:49:40.290Z,0.47
2023-01-20T16:53:48.639Z,0.49
2023-01-20T16:57:56.483Z,0.50
2023-01-20T17:02:04.550Z,0.47
2023-01-20T17:06:17.853Z,0.46
2023-01-20T17:10:26.576Z,0.47
2023-01-20T17:14:35.145Z,0.48
2023-01-20T17:18:45.946Z,0.47
2023-01-20T17:22:55.974Z,0.45
2023-01-20T17:27:03.992Z,0.47
2023-01-20T17:31:15.020Z,0.48
2023-01-20T17:35:22.752Z,0.47
2023-01-20T17:39:39.666Z,0.44
2023-01-20T17:43:51.594Z,0.42
2023-01-20T17:47:59.210Z,0.44
2023-01-20T17:52:07.218Z,0.47
2023-01-20T17:56:15.608Z,0.49
2023-01-20T18:00:24.753Z,0.50
2023-01-20T18:04:32.877Z,0.49
2023-01-20T18:08:41.216Z,0.46
2023-01-20T18:12:49.247Z,0.44
2023-01-20T18:16:57.654Z,0.44
2023-01-20T18:21:13.527Z,0.46
2023-01-20T18:25:21.493Z,0.45
2023-01-20T18:29:30.532Z,0.43
2023-01-20T18:33:40.026Z,0.40
2023-01-20T18:37:48.107Z,0.41
2023-01-20T18:41:56.190Z,0.43
2023-01-20T18:46:04.504Z,0.42
2023-01-20T18:50:13.996Z,0.40
2023-01-20T18:54:22.291Z,0.38
2023-01-20T18:58:31.883Z,0.36
2023-01-20T19:02:41.340Z,0.36
2023-01-20T19:06:49.487Z,0.32
2023-01-20T19:10:57.384Z,0.27
2023-01-20T19:15:05.151Z,0.26
2023-01-20T19:19:13.325Z,0.25
2023-01-20T19:23:21.630Z,0.20
2023-01-20T19:27:30.014Z,0.16
2023-01-20T19:31:40.284Z,0.14
2023-01-20T19:35:48.181Z,0.10
2023-01-20T19:39:57.000Z,0.04
2023-01-20T19:44:07.167Z,0.01
2023-01-20T19:48:14.932Z,-0.02
2023-01-20T19:52:22.577Z,-0.05
2023-01-20T19:56:32.584Z,-0.09
2023-01-20T20:00:40.355Z,-0.11
2023-01-20T20:04:48.644Z,-0.15
2023-01-20T20:08:57.557Z,-0.18
2023-01-20T20:13:05.892Z,-0.18
2023-01-20T20:17:14.084Z,-0.19
2023-01-20T20:21:22.614Z,-0.22
2023-01-20T20:25:30.817Z,-0.23
2023-01-20T20:29:38.656Z,-0.24
2023-01-20T20:33:47.137Z,-0.28
2023-01-20T20:37:55.003Z,-0.32
2023-01-20T20:42:02.809Z,-0.36
2023-01-20T20:46:11.161Z,-0.42
2023-01-20T20:50:19.914Z,-0.43
2023-01-20T20:54:28.509Z,-0.42
2023-01-20T20:58:36.658Z,-0.44
2023-01-20T21:02:44.587Z,-0.45
2023-01-20T21:06:52.912Z,-0.43
2023-01-20T21:11:03.437Z,-0.42
2023-01-20T21:15:13.828Z,-0.44
2023-01-20T21:19:21.838Z,-0.42
2023-01-20T21:23:30.843Z,-0.40
2023-01-20T21:27:39.625Z,-0.42
2023-01-20T21:31:47.560Z,-0.42
2023-01-20T21:35:55.684Z,-0.40
2023-01-20T21:40:04.199Z,-0.40
2023-01-20T21:44:32.518Z,-0.42
2023-01-20T21:48:57.630Z,-0.42
2023-01-20T21:53:06.031Z,-0.45
2023-01-20T21:57:15.243Z,-0.49
2023-01-20T22:01:22.867Z,-0.53
2023-01-20T22:05:30.875Z,-0.56
2023-01-20T22:09:38.908Z,-0.61
2023-01-20T22:13:47.010Z,-0.69
2023-01-20T22:17:55.984Z,-0.81
2023-01-20T22:22:04.596Z,-0.89
2023-01-20T22:26:12.589Z,-0.96
2023-01-20T22:30:21.134Z,-1.08
2023-01-20T22:34:29.447Z,-1.17
2023-01-20T22:38:37.174Z,-1.20
2023-01-20T22:42:46.014Z,-1.24
2023-01-20T22:46:53.960Z,-1.25
2023-01-20T22:51:08.349Z,-1.25
2023-01-20T22:55:16.818Z,-1.25
2023-01-20T22:59:24.021Z,-1.27
2023-01-20T23:03:31.983Z,-1.25
2023-01-20T23:07:40.815Z,-1.25
2023-01-20T23:11:48.892Z,-1.26
2023-01-20T23:15:56.970Z,-1.27
2023-01-20T23:20:05.161Z,-1.25
2023-01-20T23:24:12.876Z,-1.25
2023-01-20T23:28:20.182Z,-1.25
2023-01-20T23:32:28.145Z,-1.25
2023-01-20T23:36:36.703Z,-1.26
2023-01-20T23:40:44.204Z,-1.25
2023-01-20T23:44:52.184Z,-1.22
2023-01-20T23:49:00.288Z,-1.23
2023-01-20T23:53:07.977Z,-1.25
2023-01-20T23:57:15.681Z,-1.25
